createdAt,value
2022-12-25T00:02:11.002Z,17.13
2022-12-25T00:05:20.817Z,16.35
2022-12-25T00:07:55.758Z,17.50
2022-12-25T00:13:40.316Z,13.82
2022-12-25T00:16:13.021Z,19.27
2022-12-25T00:18:44.476Z,17.45
2022-12-25T00:21:12.982Z,21.42
2022-12-25T00:23:40.643Z,22.00
2022-12-25T00:26:11.175Z,21.10
2022-12-25T00:28:39.065Z,20.00
2022-12-25T00:31:14.559Z,24.02
2022-12-25T00:33:45.046Z,20.92
2022-12-25T00:36:14.051Z,17.88
2022-12-25T00:38:42.161Z,19.90
2022-12-25T00:41:12.656Z,21.08
2022-12-25T00:43:44.491Z,17.38
2022-12-25T00:46:13.373Z,18.50
2022-12-25T00:48:41.542Z,18.80
2022-12-25T00:51:11.800Z,20.30
2022-12-25T00:56:54.718Z,18.77
2022-12-25T00:59:23.784Z,19.85
2022-12-25T01:01:53.601Z,21.35
2022-12-25T01:04:24.213Z,17.70
2022-12-25T01:06:54.938Z,17.58
2022-12-25T01:09:43.631Z,20.25
2022-12-25T01:12:11.059Z,18.13
2022-12-25T01:14:38.508Z,15.52
2022-12-25T01:17:08.555Z,18.52
2022-12-25T01:22:24.811Z,14.60
2022-12-25T01:24:52.074Z,19.52
2022-12-25T01:30:12.035Z,16.50
2022-12-25T01:32:40.583Z,14.48
2022-12-25T01:35:08.418Z,23.30
2022-12-25T01:37:37.514Z,25.13
2022-12-25T01:40:07.868Z,23.67
2022-12-25T01:42:35.817Z,17.95
2022-12-25T01:45:35.656Z,20.90
2022-12-25T01:48:07.451Z,16.75
2022-12-25T01:50:48.049Z,19.23
2022-12-25T01:53:46.286Z,13.00
2022-12-25T01:59:45.598Z,24.00
2022-12-25T02:02:13.132Z,25.42
2022-12-25T02:04:54.115Z,27.75
2022-12-25T02:07:24.611Z,30.63
2022-12-25T02:09:53.023Z,35.85
2022-12-25T02:12:23.962Z,38.90
2022-12-25T02:14:59.670Z,26.10
2022-12-25T02:18:07.870Z,20.45
2022-12-25T02:23:17.517Z,17.20
2022-12-25T02:26:12.088Z,20.75
2022-12-25T02:29:19.785Z,27.77
2022-12-25T02:32:04.378Z,24.88
2022-12-25T02:37:49.044Z,19.60
2022-12-25T02:40:19.793Z,20.30
2022-12-25T02:43:26.286Z,21.20
2022-12-25T02:46:25.926Z,20.20
2022-12-25T02:49:30.068Z,21.50
2022-12-25T02:52:33.735Z,21.60
2022-12-25T02:55:35.323Z,29.58
2022-12-25T02:58:35.323Z,30.05
2022-12-25T03:01:28.444Z,28.55
2022-12-25T03:04:18.973Z,23.42
2022-12-25T03:07:10.812Z,27.25
2022-12-25T03:10:27.363Z,29.40
2022-12-25T03:13:40.157Z,19.92
2022-12-25T03:16:34.105Z,15.55
2022-12-25T03:19:28.823Z,22.88
2022-12-25T03:22:17.491Z,18.35
2022-12-25T03:25:12.988Z,21.15
2022-12-25T03:27:49.794Z,19.17
2022-12-25T03:30:38.817Z,18.73
2022-12-25T03:33:45.631Z,20.08
2022-12-25T03:36:33.843Z,20.80
2022-12-25T03:39:36.895Z,20.85
2022-12-25T03:42:29.735Z,16.33
2022-12-25T03:45:26.349Z,16.85
2022-12-25T03:48:16.810Z,16.65
2022-12-25T03:51:17.092Z,16.60
2022-12-25T03:54:16.552Z,14.00
2022-12-25T03:57:08.781Z,20.80
2022-12-25T03:59:59.540Z,17.73
2022-12-25T04:02:48.066Z,18.30
2022-12-25T04:05:36.179Z,17.55
2022-12-25T04:08:27.258Z,22.52
2022-12-25T04:11:19.158Z,22.88
2022-12-25T04:14:09.619Z,15.45
2022-12-25T04:17:17.879Z,12.93
2022-12-25T04:20:09.910Z,17.25
2022-12-25T04:23:00.468Z,13.43
2022-12-25T04:25:50.888Z,15.07
2022-12-25T04:28:43.091Z,15.68
2022-12-25T04:31:37.495Z,22.52
2022-12-25T04:34:24.409Z,18.10
2022-12-25T04:39:48.900Z,13.45
2022-12-25T04:42:17.284Z,18.77
2022-12-25T04:44:45.487Z,16.55
2022-12-25T04:47:14.340Z,20.55
2022-12-25T04:49:42.388Z,15.00
2022-12-25T04:52:10.108Z,15.27
2022-12-25T04:54:39.035Z,13.45
2022-12-25T04:57:06.506Z,13.70
2022-12-25T04:59:34.419Z,12.52
2022-12-25T05:02:02.452Z,13.60
2022-12-25T05:04:30.378Z,13.45
2022-12-25T05:06:58.055Z,17.30
2022-12-25T05:09:26.873Z,14.25
2022-12-25T05:11:54.305Z,14.80
2022-12-25T05:14:22.430Z,13.60
2022-12-25T05:16:50.659Z,15.27
2022-12-25T05:19:19.516Z,17.75
2022-12-25T05:21:48.744Z,15.90
2022-12-25T05:24:16.618Z,17.67
2022-12-25T05:26:45.504Z,16.13
2022-12-25T05:29:14.175Z,16.13
2022-12-25T05:31:42.243Z,17.00
2022-12-25T05:34:09.792Z,16.45
2022-12-25T05:36:37.669Z,14.18
2022-12-25T05:39:05.509Z,14.48
2022-12-25T05:41:34.644Z,13.20
2022-12-25T05:44:04.049Z,12.50
2022-12-25T05:46:32.229Z,17.13
2022-12-25T05:49:00.814Z,14.55
2022-12-25T05:51:28.640Z,14.77
2022-12-25T05:53:56.006Z,11.90
2022-12-25T05:56:25.862Z,15.00
2022-12-25T05:58:55.069Z,12.38
2022-12-25T06:01:26.818Z,15.18
2022-12-25T06:03:55.912Z,14.68
2022-12-25T06:06:25.694Z,16.60
2022-12-25T06:08:55.363Z,14.98
2022-12-25T06:11:24.868Z,17.58
2022-12-25T06:13:53.640Z,18.40
2022-12-25T06:16:23.992Z,15.18
2022-12-25T06:18:52.655Z,17.88
2022-12-25T06:21:22.256Z,18.23
2022-12-25T06:23:50.989Z,16.83
2022-12-25T06:26:21.865Z,19.02
2022-12-25T06:28:52.930Z,18.17
2022-12-25T06:31:24.020Z,27.75
2022-12-25T06:33:51.552Z,19.85
2022-12-25T06:36:27.783Z,24.75
2022-12-25T06:38:59.402Z,31.38
2022-12-25T06:41:29.487Z,30.57
2022-12-25T06:43:59.634Z,29.27
2022-12-25T06:46:30.706Z,28.67
2022-12-25T06:49:02.019Z,23.38
2022-12-25T06:51:32.279Z,37.25
2022-12-25T06:54:05.238Z,33.08
2022-12-25T06:56:34.400Z,22.55
2022-12-25T06:59:08.177Z,20.15
2022-12-25T07:01:41.936Z,29.17
2022-12-25T07:04:16.417Z,24.50
2022-12-25T07:06:45.509Z,23.10
2022-12-25T07:09:14.470Z,19.70
2022-12-25T07:11:43.222Z,16.30
2022-12-25T07:14:23.883Z,19.00
2022-12-25T07:16:53.728Z,18.17
2022-12-25T07:19:23.183Z,21.67
2022-12-25T07:21:53.775Z,19.25
2022-12-25T07:24:22.452Z,15.52
2022-12-25T07:26:52.568Z,13.65
2022-12-25T07:29:20.879Z,15.02
2022-12-25T07:31:51.220Z,14.50
2022-12-25T07:34:22.879Z,14.65
2022-12-25T07:36:55.161Z,12.63
2022-12-25T07:39:25.617Z,19.88
2022-12-25T07:41:55.509Z,13.43
2022-12-25T07:44:27.142Z,14.55
2022-12-25T07:46:55.174Z,14.13
2022-12-25T07:49:24.226Z,13.82
2022-12-25T07:51:52.820Z,16.77
2022-12-25T07:54:22.075Z,18.92
2022-12-25T07:56:53.412Z,13.88
2022-12-25T07:59:23.503Z,13.38
2022-12-25T08:02:06.702Z,37.00
2022-12-25T08:04:36.971Z,18.92
2022-12-25T08:07:06.029Z,27.42
2022-12-25T08:09:35.246Z,14.80
2022-12-25T08:12:02.680Z,18.67
2022-12-25T08:14:32.635Z,12.15
2022-12-25T08:17:00.122Z,13.93
2022-12-25T08:19:27.393Z,11.65
2022-12-25T08:21:56.732Z,12.23
2022-12-25T08:24:24.461Z,15.88
2022-12-25T08:26:52.062Z,14.38
2022-12-25T08:29:20.135Z,12.00
2022-12-25T08:31:47.406Z,14.68
2022-12-25T08:34:14.708Z,13.35
2022-12-25T08:36:42.063Z,11.82
2022-12-25T08:39:09.541Z,8.75
2022-12-25T08:41:37.019Z,11.55
2022-12-25T08:44:05.569Z,13.52
2022-12-25T08:46:33.290Z,18.13
2022-12-25T08:49:00.872Z,9.43
2022-12-25T08:51:28.747Z,13.80
2022-12-25T08:54:00.319Z,15.18
2022-12-25T08:56:28.595Z,11.02
2022-12-25T08:58:55.782Z,14.80
2022-12-25T09:01:23.131Z,10.15
2022-12-25T09:03:50.541Z,11.07
2022-12-25T09:06:18.070Z,12.80
2022-12-25T09:08:49.267Z,12.43
2022-12-25T09:11:18.725Z,18.80
2022-12-25T09:13:46.524Z,19.13
2022-12-25T09:16:17.033Z,10.77
2022-12-25T09:18:44.459Z,13.23
2022-12-25T09:21:13.422Z,9.48
2022-12-25T09:23:41.219Z,11.35
2022-12-25T09:26:11.983Z,11.70
2022-12-25T09:28:39.141Z,8.38
2022-12-25T09:31:06.681Z,11.63
2022-12-25T09:33:34.361Z,10.20
2022-12-25T09:36:07.285Z,10.02
2022-12-25T09:38:35.490Z,15.38
2022-12-25T09:41:13.168Z,15.95
2022-12-25T09:43:46.768Z,12.93
2022-12-25T09:46:17.910Z,8.15
2022-12-25T09:49:01.811Z,9.32
2022-12-25T09:51:31.685Z,8.70
2022-12-25T09:54:05.343Z,11.82
2022-12-25T09:59:00.707Z,10.80
2022-12-25T10:01:41.799Z,29.95
2022-12-25T10:04:21.357Z,20.35
2022-12-25T10:07:18.789Z,10.18
2022-12-25T10:09:52.990Z,9.18
2022-12-25T10:12:51.498Z,10.95
2022-12-25T10:15:52.772Z,9.02
2022-12-25T10:18:33.894Z,10.95
2022-12-25T10:21:13.252Z,10.57
2022-12-25T10:23:46.305Z,10.40
2022-12-25T10:26:19.751Z,14.10
2022-12-25T10:31:27.973Z,9.77
2022-12-25T10:34:12.884Z,13.57
2022-12-25T10:36:42.311Z,8.25
2022-12-25T10:39:17.732Z,8.45
2022-12-25T10:42:11.002Z,10.70
2022-12-25T10:44:38.284Z,9.67
2022-12-25T10:47:05.982Z,10.50
2022-12-25T10:49:36.883Z,6.55
2022-12-25T10:52:04.573Z,11.70
2022-12-25T10:54:35.722Z,10.35
2022-12-25T10:57:16.213Z,9.57
2022-12-25T10:59:57.884Z,13.63
2022-12-25T11:02:36.247Z,14.05
2022-12-25T11:05:14.596Z,7.57
2022-12-25T11:07:51.339Z,13.75
2022-12-25T11:10:42.781Z,11.80
2022-12-25T11:13:49.188Z,6.97
2022-12-25T11:16:45.825Z,14.48
2022-12-25T11:19:31.658Z,16.15
2022-12-25T11:22:01.341Z,11.25
2022-12-25T11:24:31.285Z,8.82
2022-12-25T11:27:01.613Z,7.30
2022-12-25T11:29:38.048Z,6.47
2022-12-25T11:32:12.939Z,4.90
2022-12-25T11:34:46.300Z,5.93
2022-12-25T11:37:20.355Z,6.90
2022-12-25T11:39:47.882Z,6.80
2022-12-25T11:42:29.869Z,4.85
2022-12-25T11:45:26.235Z,6.65
2022-12-25T11:47:56.428Z,6.45
2022-12-25T11:50:32.895Z,5.80
2022-12-25T11:53:06.919Z,5.05
2022-12-25T11:55:44.041Z,9.60
2022-12-25T11:58:37.812Z,5.07
2022-12-25T12:01:17.633Z,6.68
2022-12-25T12:03:45.389Z,7.78
2022-12-25T12:06:36.742Z,9.07
2022-12-25T12:09:30.570Z,12.80
2022-12-25T12:12:06.609Z,6.70
2022-12-25T12:14:43.258Z,8.45
2022-12-25T12:17:13.704Z,7.85
2022-12-25T12:19:41.189Z,8.40
2022-12-25T12:22:27.934Z,6.60
2022-12-25T12:25:06.757Z,5.95
2022-12-25T12:27:39.824Z,6.07
2022-12-25T12:30:22.267Z,6.38
2022-12-25T12:33:01.894Z,4.70
2022-12-25T12:35:33.910Z,7.45
2022-12-25T12:38:06.039Z,7.32
2022-12-25T12:40:39.413Z,5.25
2022-12-25T12:43:23.846Z,8.55
2022-12-25T12:46:17.164Z,9.27
2022-12-25T12:48:47.960Z,6.10
2022-12-25T12:51:32.071Z,3.85
2022-12-25T12:54:21.927Z,7.68
2022-12-25T12:56:57.383Z,6.10
2022-12-25T12:59:25.803Z,7.50
2022-12-25T13:02:07.599Z,7.35
2022-12-25T13:04:43.965Z,7.93
2022-12-25T13:07:30.465Z,12.35
2022-12-25T13:10:12.940Z,5.72
2022-12-25T13:12:40.199Z,7.57
2022-12-25T13:15:13.523Z,8.40
2022-12-25T13:17:45.281Z,12.90
2022-12-25T13:20:31.577Z,12.90
2022-12-25T13:22:58.750Z,10.95
2022-12-25T13:25:26.004Z,9.60
2022-12-25T13:27:57.726Z,8.93
2022-12-25T13:30:25.698Z,8.02
2022-12-25T13:32:53.203Z,7.90
2022-12-25T13:35:22.978Z,7.75
2022-12-25T13:37:50.648Z,16.23
2022-12-25T13:40:28.529Z,10.57
2022-12-25T13:42:59.773Z,10.90
2022-12-25T13:45:29.622Z,11.63
2022-12-25T13:47:57.509Z,10.45
2022-12-25T13:50:31.224Z,9.02
2022-12-25T13:53:10.612Z,5.90
2022-12-25T13:55:38.315Z,7.25
2022-12-25T13:58:07.431Z,9.30
2022-12-25T14:00:40.495Z,13.85
2022-12-25T14:03:15.309Z,17.83
2022-12-25T14:05:43.755Z,46.28
2022-12-25T14:08:17.711Z,11.48
2022-12-25T14:10:48.887Z,10.10
2022-12-25T14:13:18.104Z,13.63
2022-12-25T14:15:48.028Z,31.48
2022-12-25T14:18:17.566Z,42.63
2022-12-25T14:21:05.403Z,84.22
2022-12-25T14:23:48.446Z,69.57
2022-12-25T14:26:33.598Z,37.05
2022-12-25T14:29:11.133Z,24.52
2022-12-25T14:31:45.106Z,44.70
2022-12-25T14:34:17.999Z,40.47
2022-12-25T14:36:45.669Z,16.10
2022-12-25T14:39:31.464Z,14.13
2022-12-25T14:41:59.362Z,17.85
2022-12-25T14:44:38.968Z,16.75
2022-12-25T14:47:14.651Z,24.95
2022-12-25T14:49:42.360Z,86.57
2022-12-25T14:52:38.899Z,262.50
2022-12-25T14:55:08.170Z,140.27
2022-12-25T14:57:40.157Z,35.08
2022-12-25T15:00:29.376Z,149.15
2022-12-25T15:02:58.768Z,103.15
2022-12-25T15:05:36.785Z,144.45
2022-12-25T15:08:04.033Z,32.10
2022-12-25T15:10:59.597Z,38.40
2022-12-25T15:13:19.216Z,27.55
2022-12-25T15:16:11.838Z,48.58
2022-12-25T15:18:43.806Z,78.78
2022-12-25T15:21:16.179Z,104.72
2022-12-25T15:23:44.013Z,135.70
2022-12-25T15:26:14.977Z,120.70
2022-12-25T15:28:42.151Z,109.00
2022-12-25T15:31:27.851Z,110.60
2022-12-25T15:33:56.876Z,106.07
2022-12-25T15:36:24.392Z,205.85
2022-12-25T15:38:52.318Z,1038.35
2022-12-25T15:41:42.953Z,356.95
2022-12-25T15:44:12.216Z,192.27
2022-12-25T15:46:39.936Z,137.70
2022-12-25T15:49:07.204Z,127.55
2022-12-25T15:51:34.713Z,247.77
2022-12-25T15:54:02.016Z,189.20
2022-12-25T15:56:29.780Z,155.00
2022-12-25T15:58:57.163Z,109.90
2022-12-25T16:01:24.361Z,159.70
2022-12-25T16:03:51.786Z,208.15
2022-12-25T16:06:19.226Z,246.77
2022-12-25T16:08:46.476Z,239.32
2022-12-25T16:11:13.839Z,266.77
2022-12-25T16:13:41.028Z,242.43
2022-12-25T16:16:08.522Z,161.70
2022-12-25T16:18:35.961Z,151.15
2022-12-25T16:21:03.253Z,146.73
2022-12-25T16:23:31.230Z,133.27
2022-12-25T16:25:58.873Z,80.28
2022-12-25T16:28:26.543Z,65.90
2022-12-25T16:30:55.105Z,119.85
2022-12-25T16:33:22.385Z,232.73
2022-12-25T16:35:51.493Z,350.00
2022-12-25T16:38:19.362Z,172.95
2022-12-25T16:40:55.654Z,135.98
2022-12-25T16:43:24.300Z,146.77
2022-12-25T16:45:52.071Z,157.48
2022-12-25T16:48:19.353Z,186.93
2022-12-25T16:50:46.480Z,118.35
2022-12-25T16:53:13.783Z,154.15
2022-12-25T16:55:40.923Z,95.68
2022-12-25T16:58:08.183Z,69.15
2022-12-25T17:00:35.585Z,77.65
2022-12-25T17:03:02.851Z,83.88
2022-12-25T17:05:30.228Z,83.05
2022-12-25T17:07:59.513Z,112.22
2022-12-25T17:10:26.701Z,114.53
2022-12-25T17:12:53.932Z,101.72
2022-12-25T17:15:22.678Z,123.88
2022-12-25T17:17:50.195Z,429.83
2022-12-25T17:20:17.363Z,172.93
2022-12-25T17:22:44.645Z,178.10
2022-12-25T17:25:11.831Z,121.40
2022-12-25T17:27:39.067Z,93.00
2022-12-25T17:30:09.422Z,77.53
2022-12-25T17:32:36.585Z,86.90
2022-12-25T17:35:03.944Z,80.55
2022-12-25T17:37:32.160Z,87.78
2022-12-25T17:39:59.414Z,78.35
2022-12-25T17:42:26.594Z,80.90
2022-12-25T17:44:53.863Z,100.13
2022-12-25T17:47:21.211Z,104.35
2022-12-25T17:49:48.523Z,101.22
2022-12-25T17:52:15.731Z,105.22
2022-12-25T17:54:42.933Z,199.70
2022-12-25T17:57:10.258Z,141.82
2022-12-25T17:59:37.615Z,124.13
2022-12-25T18:02:05.545Z,141.60
2022-12-25T18:04:33.342Z,128.48
2022-12-25T18:07:00.955Z,312.92
2022-12-25T18:09:28.318Z,81.18
2022-12-25T18:11:55.910Z,145.30
2022-12-25T18:14:23.151Z,126.40
2022-12-25T18:16:51.990Z,53.33
2022-12-25T18:19:19.862Z,80.88
2022-12-25T18:21:47.079Z,90.30
2022-12-25T18:24:14.356Z,53.72
2022-12-25T18:26:41.477Z,56.72
2022-12-25T18:29:08.839Z,43.55
2022-12-25T18:31:36.223Z,42.20
2022-12-25T18:34:03.946Z,42.90
2022-12-25T18:36:31.755Z,36.25
2022-12-25T18:38:59.513Z,38.42
2022-12-25T18:41:28.838Z,49.65
2022-12-25T18:43:56.410Z,99.30
2022-12-25T18:46:25.757Z,973.17
2022-12-25T18:48:55.179Z,622.97
2022-12-25T18:51:22.581Z,104.00
2022-12-25T18:53:49.841Z,71.32
2022-12-25T18:56:18.286Z,55.78
2022-12-25T18:58:46.701Z,45.42
2022-12-25T19:01:19.632Z,97.50
2022-12-25T19:03:49.320Z,46.95
2022-12-25T19:06:19.849Z,49.90
2022-12-25T19:08:47.491Z,46.13
2022-12-25T19:11:14.976Z,47.78
2022-12-25T19:13:42.606Z,45.45
2022-12-25T19:16:10.295Z,42.30
2022-12-25T19:18:38.116Z,69.80
2022-12-25T19:21:07.182Z,83.30
2022-12-25T19:23:35.301Z,89.50
2022-12-25T19:26:05.717Z,82.13
2022-12-25T19:28:33.010Z,74.10
2022-12-25T19:31:01.806Z,66.50
2022-12-25T19:33:31.674Z,166.68
2022-12-25T19:36:11.182Z,341.88
2022-12-25T19:38:38.841Z,503.38
2022-12-25T19:41:08.014Z,113.25
2022-12-25T19:43:40.796Z,70.60
2022-12-25T19:46:14.469Z,73.13
2022-12-25T19:48:41.739Z,74.13
2022-12-25T19:51:22.072Z,70.65
2022-12-25T19:53:49.724Z,76.07
2022-12-25T19:56:17.238Z,71.15
2022-12-25T19:58:45.463Z,85.35
2022-12-25T20:01:17.066Z,88.93
2022-12-25T20:03:48.198Z,99.72
2022-12-25T20:06:22.180Z,95.38
2022-12-25T20:09:00.972Z,100.05
2022-12-25T20:11:30.498Z,107.60
2022-12-25T20:13:58.529Z,100.45
2022-12-25T20:16:26.619Z,98.18
2022-12-25T20:18:54.089Z,175.15
2022-12-25T20:21:22.915Z,122.05
2022-12-25T20:23:52.241Z,140.75
2022-12-25T20:26:21.667Z,123.95
2022-12-25T20:28:49.111Z,125.47
2022-12-25T20:31:27.400Z,132.70
2022-12-25T20:33:56.624Z,127.30
2022-12-25T20:36:24.426Z,130.55
2022-12-25T20:38:52.997Z,153.00
2022-12-25T20:41:26.954Z,140.82
2022-12-25T20:43:55.661Z,143.75
2022-12-25T20:46:23.143Z,139.07
2022-12-25T20:48:50.517Z,129.60
2022-12-25T20:51:20.271Z,124.88
2022-12-25T20:53:48.122Z,145.05
2022-12-25T20:56:20.153Z,196.77
2022-12-25T20:58:50.915Z,170.32
2022-12-25T21:01:22.118Z,125.78
2022-12-25T21:03:51.075Z,225.70
2022-12-25T21:06:20.047Z,170.25
2022-12-25T21:08:51.489Z,156.98
2022-12-25T21:11:24.428Z,148.93
2022-12-25T21:13:52.214Z,140.40
2022-12-25T21:16:22.321Z,190.27
2022-12-25T21:18:52.348Z,155.52
2022-12-25T21:21:20.941Z,105.63
2022-12-25T21:23:48.340Z,126.35
2022-12-25T21:26:25.918Z,126.53
2022-12-25T21:28:56.301Z,145.95
2022-12-25T21:31:26.005Z,107.10
2022-12-25T21:33:55.316Z,308.88
2022-12-25T21:36:27.598Z,453.98
2022-12-25T21:39:08.067Z,156.70
2022-12-25T21:41:43.186Z,106.03
2022-12-25T21:48:01.535Z,101.35
2022-12-25T21:50:50.835Z,140.75
2022-12-25T21:53:19.586Z,117.30
2022-12-25T21:56:02.600Z,94.90
2022-12-25T21:58:30.180Z,88.83
2022-12-25T22:01:03.390Z,107.82
2022-12-25T22:03:47.210Z,89.05
2022-12-25T22:06:47.472Z,90.32
2022-12-25T22:09:51.305Z,93.90
2022-12-25T22:12:38.837Z,90.03
2022-12-25T22:15:07.722Z,99.38
2022-12-25T22:18:02.293Z,75.63
2022-12-25T22:20:34.744Z,34.58
2022-12-25T22:23:02.322Z,29.45
2022-12-25T22:25:29.753Z,40.22
2022-12-25T22:27:58.204Z,57.20
2022-12-25T22:33:59.043Z,456.67
2022-12-25T22:36:26.916Z,214.35
2022-12-25T22:38:54.805Z,52.45
2022-12-25T22:41:33.462Z,65.70
2022-12-25T22:44:17.056Z,71.03
2022-12-25T22:46:57.820Z,65.10
2022-12-25T22:49:28.406Z,64.63
2022-12-25T22:51:56.687Z,69.70
2022-12-25T22:54:24.842Z,79.95
2022-12-25T22:56:55.671Z,92.35
2022-12-25T22:59:23.609Z,97.70
2022-12-25T23:01:51.590Z,123.45
2022-12-25T23:04:19.983Z,145.15
2022-12-25T23:06:47.983Z,135.32
2022-12-25T23:09:24.336Z,123.65
2022-12-25T23:11:58.097Z,111.07
2022-12-25T23:14:40.767Z,115.45
2022-12-25T23:17:32.502Z,83.93
2022-12-25T23:20:22.645Z,80.85
2022-12-25T23:23:12.078Z,68.20
2022-12-25T23:25:58.302Z,64.45
2022-12-25T23:28:45.723Z,61.42
2022-12-25T23:31:17.492Z,33.22
2022-12-25T23:33:50.902Z,27.52
2022-12-25T23:36:19.440Z,26.42
2022-12-25T23:38:46.855Z,28.02
2022-12-25T23:41:17.033Z,20.17
2022-12-25T23:43:46.480Z,16.20
2022-12-25T23:46:16.485Z,21.17
2022-12-25T23:48:49.668Z,21.55
2022-12-25T23:51:18.781Z,25.90
2022-12-25T23:53:51.007Z,22.02
2022-12-25T23:56:19.340Z,20.50
2022-12-25T23:58:53.135Z,19.55
